Oriental Clematis — 9VJT5 — position and weather

sailwx.info

Track history (hours):
 
Tides and Currents Weather Stations Pressure Air Temp Water Temp Dewpoint Dewpoint Depression Visibility Wind Speed Wind Dir Waves Ship Positions

Oriental Clematis

Last reported at 2014-Jul-24 03:33 UTC. Time now 2014-Jul-29 14:56 UTC.
Position N 40°45' E 029°30'.

Length 134 m; draft 7.2 m.

Type: Ship (hazmat cat C). MMSI: 565157000.

Date/timePositionNaut miles runAvg speedWind from/ knotsBaromVisibWave heightAir tempDewpointWater temp
2014-Jul-24 03:33N 40°45' E 029°30'8 7.7
2014-Jul-24 02:33N 40°44' E 029°20'7 7.2
2014-Jul-24 01:32N 40°44' E 029°10'1111.1
2014-Jul-24 00:32N 40°42' E 028°56'270 5.6
2014-Jul-22 00:08N 37°50' E 024°27'3210.9
2014-Jul-21 21:09N 37°37' E 023°50'712.0
2014-Jul-21 20:33N 37°40' E 023°42'312.2
2014-Jul-21 20:18N 37°43' E 023°40'911.6
2014-Jul-21 19:33N 37°51' E 023°35'3 2.9
2014-Jul-21 18:32N 37°54' E 023°33'0 0.0
2014-Jul-21 17:32N 37°54' E 023°33'0 0.0
2014-Jul-21 16:32N 37°54' E 023°33'0 0.0
2014-Jul-21 15:32N 37°54' E 023°33'0 0.0
2014-Jul-21 14:32N 37°54' E 023°33'0 0.0
2014-Jul-21 13:33N 37°54' E 023°33'0 0.0
2014-Jul-21 12:33N 37°54' E 023°33'0 0.1
2014-Jul-21 11:33N 37°53' E 023°33'3 3.4
2014-Jul-21 10:33N 37°56' E 023°36'2 1.6
2014-Jul-21 09:14N 37°57' E 023°35'0 0.0
2014-Jul-21 08:17N 37°57' E 023°35'0 0.0
2014-Jul-21 07:32N 37°57' E 023°35'0 0.0
2014-Jul-21 06:32N 37°57' E 023°35'3 0.2
2014-Jul-20 15:17N 37°55' E 023°37'4 5.9
2014-Jul-20 14:33N 37°51' E 023°39'6011.2
2014-Jul-20 09:12N 37°13' E 024°36'811.7
2014-Jul-20 08:31N 37°12' E 024°46'1212.4
2014-Jul-20 07:33N 37°13' E 025°01'1212.4
2014-Jul-20 06:33N 37°14' E 025°17'1312.2
2014-Jul-20 05:31N 37°14' E 025°33'1110.8
2014-Jul-20 04:32N 37°13' E 025°46'1110.8
2014-Jul-20 03:32N 37°07' E 025°57'  
2014-Jul-16 13:06N 34°36' E 034°27'611.5
2014-Jul-16 12:33N 34°30' E 034°24'2411.8
2014-Jul-16 10:32N 34°09' E 034°11'15611.7
2014-Jul-15 21:13N 31°49' E 032°47'51 7.6
2014-Jul-15 14:33N 31°05' E 032°19'  
Track history (hours):
 
Tides and Currents Weather Stations Pressure Air Temp Water Temp Dewpoint Dewpoint Depression Visibility Wind Speed Wind Dir Waves Ship Positions

Oriental Clematis

Last reported at 2014-Jul-24 03:33 UTC. Time now 2014-Jul-29 14:56 UTC.
Position N 40°45' E 029°30'.

Length 134 m; draft 7.2 m.

Type: Ship (hazmat cat C). MMSI: 565157000.

Date/timePositionNaut miles runAvg speedWind from/ knotsBaromVisibWave heightAir tempDewpointWater temp
2014-Jul-24 03:33N 40°45' E 029°30'8 7.7
2014-Jul-24 02:33N 40°44' E 029°20'7 7.2
2014-Jul-24 01:32N 40°44' E 029°10'1111.1
2014-Jul-24 00:32N 40°42' E 028°56'270 5.6
2014-Jul-22 00:08N 37°50' E 024°27'3210.9
2014-Jul-21 21:09N 37°37' E 023°50'712.0
2014-Jul-21 20:33N 37°40' E 023°42'312.2
2014-Jul-21 20:18N 37°43' E 023°40'911.6
2014-Jul-21 19:33N 37°51' E 023°35'3 2.9
2014-Jul-21 18:32N 37°54' E 023°33'0 0.0
2014-Jul-21 17:32N 37°54' E 023°33'0 0.0
2014-Jul-21 16:32N 37°54' E 023°33'0 0.0
2014-Jul-21 15:32N 37°54' E 023°33'0 0.0
2014-Jul-21 14:32N 37°54' E 023°33'0 0.0
2014-Jul-21 13:33N 37°54' E 023°33'0 0.0
2014-Jul-21 12:33N 37°54' E 023°33'0 0.1
2014-Jul-21 11:33N 37°53' E 023°33'3 3.4
2014-Jul-21 10:33N 37°56' E 023°36'2 1.6
2014-Jul-21 09:14N 37°57' E 023°35'0 0.0
2014-Jul-21 08:17N 37°57' E 023°35'0 0.0
2014-Jul-21 07:32N 37°57' E 023°35'0 0.0
2014-Jul-21 06:32N 37°57' E 023°35'3 0.2
2014-Jul-20 15:17N 37°55' E 023°37'4 5.9
2014-Jul-20 14:33N 37°51' E 023°39'6011.2
2014-Jul-20 09:12N 37°13' E 024°36'811.7
2014-Jul-20 08:31N 37°12' E 024°46'1212.4
2014-Jul-20 07:33N 37°13' E 025°01'1212.4
2014-Jul-20 06:33N 37°14' E 025°17'1312.2
2014-Jul-20 05:31N 37°14' E 025°33'1110.8
2014-Jul-20 04:32N 37°13' E 025°46'1110.8
2014-Jul-20 03:32N 37°07' E 025°57'  
2014-Jul-16 13:06N 34°36' E 034°27'611.5
2014-Jul-16 12:33N 34°30' E 034°24'2411.8
2014-Jul-16 10:32N 34°09' E 034°11'15611.7
2014-Jul-15 21:13N 31°49' E 032°47'51 7.6
2014-Jul-15 14:33N 31°05' E 032°19'  

Dump ship's entire track history